createdAt,value
2018-10-07T00:00:09.790Z,0.00
2018-10-07T00:01:09.790Z,0.00
2018-10-07T00:02:09.266Z,0.00
2018-10-07T00:03:09.788Z,0.00
2018-10-07T00:04:09.789Z,0.00
2018-10-07T00:05:09.793Z,0.00
2018-10-07T00:06:09.793Z,0.00
2018-10-07T00:07:09.356Z,0.00
2018-10-07T00:08:09.792Z,0.00
2018-10-07T00:09:09.791Z,0.00
2018-10-07T00:10:09.790Z,0.00
2018-10-07T00:11:09.792Z,0.00
2018-10-07T00:12:09.348Z,0.00
2018-10-07T00:13:09.339Z,0.00
2018-10-07T00:14:08.897Z,0.00
2018-10-07T00:15:08.871Z,0.00
2018-10-07T00:16:08.843Z,0.00
2018-10-07T00:17:08.819Z,0.00
2018-10-07T00:18:08.863Z,0.00
2018-10-07T00:19:09.293Z,0.00
2018-10-07T00:20:09.303Z,0.00
2018-10-07T00:21:09.302Z,0.00
2018-10-07T00:22:09.294Z,0.00
2018-10-07T00:23:08.846Z,0.00
2018-10-07T00:24:09.296Z,0.00
2018-10-07T00:25:08.852Z,0.00
2018-10-07T00:26:09.293Z,0.00
2018-10-07T00:27:09.307Z,0.00
2018-10-07T00:28:09.302Z,0.00
2018-10-07T00:29:09.297Z,0.00
2018-10-07T00:30:08.845Z,0.00
2018-10-07T00:31:09.296Z,0.00
2018-10-07T00:32:08.405Z,0.00
2018-10-07T00:33:08.397Z,0.00
2018-10-07T00:34:08.854Z,0.00
2018-10-07T00:35:08.849Z,0.00
2018-10-07T00:36:08.799Z,0.00
2018-10-07T00:37:08.796Z,0.00
2018-10-07T00:38:08.800Z,0.00
2018-10-07T00:39:08.452Z,0.00
2018-10-07T00:40:08.798Z,0.00
2018-10-07T00:41:08.799Z,0.00
2018-10-07T00:42:08.802Z,0.00
2018-10-07T00:43:08.803Z,0.00
2018-10-07T00:44:08.351Z,0.00
2018-10-07T00:45:08.356Z,0.00
2018-10-07T00:46:08.799Z,0.00
2018-10-07T00:47:07.990Z,0.00
2018-10-07T00:48:08.800Z,0.00
2018-10-07T00:49:08.402Z,0.00
2018-10-07T00:50:08.365Z,0.00
2018-10-07T00:51:07.880Z,0.00
2018-10-07T00:52:08.801Z,0.00
2018-10-07T00:53:08.800Z,0.00
2018-10-07T00:54:08.301Z,0.00
2018-10-07T00:55:07.858Z,0.00
2018-10-07T00:56:07.856Z,0.00
2018-10-07T00:57:08.301Z,0.00
2018-10-07T00:58:08.313Z,0.00
2018-10-07T00:59:08.303Z,0.00
2018-10-07T01:00:08.303Z,0.00
2018-10-07T01:01:07.856Z,0.00
2018-10-07T01:02:07.580Z,0.00
2018-10-07T01:03:08.307Z,0.00
2018-10-07T01:04:08.304Z,0.00
2018-10-07T01:05:08.303Z,0.00
2018-10-07T01:06:07.862Z,0.00
2018-10-07T01:07:07.444Z,0.00
2018-10-07T01:08:07.409Z,0.00
2018-10-07T01:09:08.307Z,0.00
2018-10-07T01:10:08.304Z,0.00
2018-10-07T01:11:07.857Z,0.00
2018-10-07T01:12:07.357Z,0.00
2018-10-07T01:13:07.804Z,0.00
2018-10-07T01:14:07.805Z,0.00
2018-10-07T01:15:07.805Z,0.00
2018-10-07T01:16:07.806Z,0.00
2018-10-07T01:17:07.203Z,0.00
2018-10-07T01:18:07.806Z,0.00
2018-10-07T01:19:07.858Z,0.00
2018-10-07T01:20:07.360Z,0.00
2018-10-07T01:21:07.807Z,0.00
2018-10-07T01:22:07.807Z,0.00
2018-10-07T01:23:07.365Z,0.00
2018-10-07T01:24:07.808Z,0.00
2018-10-07T01:25:07.866Z,0.00
2018-10-07T01:26:07.821Z,0.00
2018-10-07T01:27:07.374Z,0.00
2018-10-07T01:28:07.371Z,0.00
2018-10-07T01:29:06.838Z,0.00
2018-10-07T01:30:06.864Z,0.00
2018-10-07T01:31:07.307Z,0.00
2018-10-07T01:32:06.737Z,0.00
2018-10-07T01:33:06.874Z,0.00
2018-10-07T01:34:07.309Z,0.00
2018-10-07T01:35:07.309Z,0.00
2018-10-07T01:36:07.309Z,0.00
2018-10-07T01:37:07.318Z,0.00
2018-10-07T01:38:06.665Z,0.00
2018-10-07T01:39:07.310Z,0.00
2018-10-07T01:40:07.309Z,0.00
2018-10-07T01:41:07.309Z,0.00
2018-10-07T01:42:07.313Z,0.00
2018-10-07T01:43:06.862Z,0.00
2018-10-07T01:44:06.872Z,0.00
2018-10-07T01:45:07.312Z,0.00
2018-10-07T01:46:07.314Z,0.00
2018-10-07T01:47:06.319Z,0.00
2018-10-07T01:48:06.868Z,0.00
2018-10-07T01:49:06.814Z,0.00
2018-10-07T01:50:06.368Z,0.00
2018-10-07T01:51:06.208Z,0.00
2018-10-07T01:52:06.815Z,0.00
2018-10-07T01:53:06.151Z,0.00
2018-10-07T01:54:06.812Z,0.00
2018-10-07T01:55:06.389Z,0.00
2018-10-07T01:56:06.817Z,0.00
2018-10-07T01:57:06.813Z,0.00
2018-10-07T01:58:06.814Z,0.00
2018-10-07T01:59:05.985Z,0.00
2018-10-07T02:00:06.364Z,0.00
2018-10-07T02:01:06.812Z,0.00
2018-10-07T02:02:05.897Z,0.00
2018-10-07T02:03:06.814Z,0.00
2018-10-07T02:04:06.812Z,0.00
2018-10-07T02:05:05.906Z,0.00
2018-10-07T02:06:06.326Z,0.00
2018-10-07T02:07:06.316Z,0.00
2018-10-07T02:08:05.733Z,0.00
2018-10-07T02:09:06.315Z,0.00
2018-10-07T02:10:05.886Z,0.00
2018-10-07T02:11:06.316Z,0.00
2018-10-07T02:12:06.317Z,0.00
2018-10-07T02:13:06.316Z,0.00
2018-10-07T02:14:06.429Z,0.00
2018-10-07T02:15:05.886Z,0.00
2018-10-07T02:16:06.316Z,0.00
2018-10-07T02:17:05.533Z,0.00
2018-10-07T02:18:06.317Z,0.00
2018-10-07T02:19:06.316Z,0.00
2018-10-07T02:20:05.875Z,0.00
2018-10-07T02:21:06.319Z,0.00
2018-10-07T02:22:05.872Z,0.00
2018-10-07T02:23:05.817Z,0.00
2018-10-07T02:24:05.829Z,0.00
2018-10-07T02:25:05.246Z,0.00
2018-10-07T02:26:05.820Z,0.00
2018-10-07T02:27:05.380Z,0.00
2018-10-07T02:28:05.905Z,0.00
2018-10-07T02:29:05.376Z,0.00
2018-10-07T02:30:05.821Z,0.00
2018-10-07T02:31:05.817Z,0.00
2018-10-07T02:32:05.051Z,0.00
2018-10-07T02:33:05.822Z,0.00
2018-10-07T02:34:05.372Z,0.00
2018-10-07T02:35:05.822Z,0.00
2018-10-07T02:36:05.382Z,0.00
2018-10-07T02:37:05.834Z,0.00
2018-10-07T02:38:05.872Z,0.00
2018-10-07T02:39:05.820Z,0.00
2018-10-07T02:40:05.320Z,0.00
2018-10-07T02:41:04.886Z,0.00
2018-10-07T02:42:04.765Z,0.00
2018-10-07T02:43:05.320Z,0.00
2018-10-07T02:44:05.321Z,0.00
2018-10-07T02:45:05.326Z,0.00
2018-10-07T02:46:04.887Z,0.00
2018-10-07T02:47:04.673Z,0.00
2018-10-07T02:48:05.331Z,0.00
2018-10-07T02:49:05.323Z,0.00
2018-10-07T02:50:04.886Z,0.00
2018-10-07T02:51:05.327Z,0.00
2018-10-07T02:52:05.324Z,0.00
2018-10-07T02:53:05.371Z,0.00
2018-10-07T02:54:05.329Z,0.00
2018-10-07T02:55:04.879Z,0.00
2018-10-07T02:56:05.322Z,0.00
2018-10-07T02:57:04.883Z,0.00
2018-10-07T02:58:04.836Z,0.00
2018-10-07T02:59:04.824Z,0.00
2018-10-07T03:00:04.824Z,0.00
2018-10-07T03:01:04.226Z,0.00
2018-10-07T03:02:04.239Z,0.00
2018-10-07T03:03:04.172Z,0.00
2018-10-07T03:04:04.825Z,0.00
2018-10-07T03:05:04.826Z,0.00
2018-10-07T03:06:04.384Z,0.00
2018-10-07T03:07:04.828Z,0.00
2018-10-07T03:08:04.824Z,0.00
2018-10-07T03:09:04.825Z,0.00
2018-10-07T03:10:04.830Z,0.00
2018-10-07T03:11:04.382Z,0.00
2018-10-07T03:12:04.380Z,0.00
2018-10-07T03:13:04.825Z,0.00
2018-10-07T03:14:03.858Z,0.00
2018-10-07T03:15:04.327Z,0.00
2018-10-07T03:16:03.885Z,0.00
2018-10-07T03:17:03.816Z,0.00
2018-10-07T03:18:04.329Z,0.00
2018-10-07T03:19:04.327Z,0.00
2018-10-07T03:20:04.329Z,0.00
2018-10-07T03:21:06.331Z,0.00
2018-10-07T03:22:03.894Z,0.00
2018-10-07T03:23:04.327Z,0.00
2018-10-07T03:24:04.326Z,0.00
2018-10-07T03:25:04.351Z,0.00
2018-10-07T03:26:04.328Z,0.00
2018-10-07T03:27:03.883Z,0.00
2018-10-07T03:28:04.330Z,0.00
2018-10-07T03:29:04.333Z,0.00
2018-10-07T03:30:04.335Z,0.00
2018-10-07T03:31:04.331Z,0.00
2018-10-07T03:32:03.387Z,0.00
2018-10-07T03:33:03.829Z,0.00
2018-10-07T03:34:03.286Z,0.00
2018-10-07T03:35:03.831Z,0.00
2018-10-07T03:36:03.832Z,0.00
2018-10-07T03:37:03.380Z,0.00
2018-10-07T03:38:03.411Z,0.00
2018-10-07T03:39:03.829Z,0.00
2018-10-07T03:40:03.831Z,0.00
2018-10-07T03:41:03.841Z,0.00
2018-10-07T03:42:03.832Z,0.00
2018-10-07T03:43:03.390Z,0.00
2018-10-07T03:44:02.999Z,0.00
2018-10-07T03:45:03.833Z,0.00
2018-10-07T03:46:03.837Z,0.00
2018-10-07T03:47:02.954Z,0.00
2018-10-07T03:48:03.833Z,0.00
2018-10-07T03:49:03.385Z,0.00
2018-10-07T03:50:03.337Z,0.00
2018-10-07T03:51:02.898Z,0.00
2018-10-07T03:52:03.336Z,0.00
2018-10-07T03:53:03.333Z,0.00
2018-10-07T03:54:03.333Z,0.00
2018-10-07T03:55:03.408Z,0.00
2018-10-07T03:56:02.886Z,0.00
2018-10-07T03:57:03.333Z,0.00
2018-10-07T03:58:03.339Z,0.00
2018-10-07T03:59:02.617Z,0.00
2018-10-07T04:00:03.338Z,0.00
2018-10-07T04:01:03.335Z,0.00
2018-10-07T04:02:02.491Z,0.00
2018-10-07T04:03:03.335Z,0.00
2018-10-07T04:04:02.884Z,0.00
2018-10-07T04:05:03.336Z,0.00
2018-10-07T04:06:02.906Z,0.00
2018-10-07T04:07:03.340Z,0.00
2018-10-07T04:08:02.317Z,0.00
2018-10-07T04:09:02.294Z,0.00
2018-10-07T04:10:02.836Z,0.00
2018-10-07T04:11:02.386Z,0.00
2018-10-07T04:12:02.840Z,0.00
2018-10-07T04:13:02.391Z,0.00
2018-10-07T04:14:02.147Z,0.00
2018-10-07T04:15:02.836Z,0.00
2018-10-07T04:16:02.836Z,0.00
2018-10-07T04:17:02.111Z,0.00
2018-10-07T04:18:02.838Z,0.00
2018-10-07T04:19:02.838Z,0.00
2018-10-07T04:20:02.844Z,0.00
2018-10-07T04:21:02.840Z,0.00
2018-10-07T04:22:02.396Z,0.00
2018-10-07T04:23:02.387Z,0.00
2018-10-07T04:24:02.838Z,0.00
2018-10-07T04:25:02.359Z,0.00
2018-10-07T04:26:01.807Z,0.00
2018-10-07T04:27:02.403Z,0.00
2018-10-07T04:28:01.888Z,0.00
2018-10-07T04:29:01.776Z,0.00
2018-10-07T04:30:02.339Z,0.00
2018-10-07T04:31:02.342Z,0.00
2018-10-07T04:32:01.636Z,0.00
2018-10-07T04:33:02.350Z,0.00
2018-10-07T04:34:01.907Z,0.00
2018-10-07T04:35:02.342Z,0.00
2018-10-07T04:36:02.341Z,0.00
2018-10-07T04:37:02.346Z,0.00
2018-10-07T04:38:02.347Z,0.00
2018-10-07T04:39:01.897Z,0.00
2018-10-07T04:40:01.952Z,0.00
2018-10-07T04:41:02.341Z,0.00
2018-10-07T04:42:02.344Z,0.00
2018-10-07T04:43:01.843Z,0.00
2018-10-07T04:44:01.302Z,0.00
2018-10-07T04:45:01.421Z,0.00
2018-10-07T04:46:01.847Z,0.00
2018-10-07T04:47:01.216Z,0.00
2018-10-07T04:48:01.844Z,0.00
2018-10-07T04:49:01.843Z,4.00
2018-10-07T04:50:01.397Z,4.00
2018-10-07T04:51:01.842Z,4.00
2018-10-07T04:52:01.875Z,4.00
2018-10-07T04:53:01.843Z,4.00
2018-10-07T04:54:01.843Z,4.00
2018-10-07T04:55:01.411Z,4.00
2018-10-07T04:56:01.394Z,8.00
2018-10-07T04:57:01.850Z,12.00
2018-10-07T04:58:01.845Z,12.00
2018-10-07T04:59:01.869Z,12.00
2018-10-07T05:00:01.860Z,16.00
2018-10-07T05:01:00.901Z,20.00
2018-10-07T05:02:00.793Z,24.00
2018-10-07T05:03:01.345Z,32.00
2018-10-07T05:04:01.348Z,36.00
2018-10-07T05:05:01.348Z,40.00
2018-10-07T05:06:00.901Z,48.00
2018-10-07T05:07:00.905Z,56.00
2018-10-07T05:08:01.347Z,64.00
2018-10-07T05:09:01.345Z,76.00
2018-10-07T05:10:01.345Z,84.00
2018-10-07T05:11:00.911Z,100.00
2018-10-07T05:12:01.356Z,120.00
2018-10-07T05:13:01.354Z,136.00
2018-10-07T05:14:01.256Z,160.00
2018-10-07T05:15:01.349Z,180.00
2018-10-07T05:16:00.910Z,200.00
2018-10-07T05:17:00.407Z,236.00
2018-10-07T05:18:00.417Z,280.00
2018-10-07T05:19:00.847Z,324.00
2018-10-07T05:20:00.849Z,364.00
2018-10-07T05:21:00.936Z,404.00
2018-10-07T05:22:00.849Z,444.00
2018-10-07T05:23:00.401Z,488.00
2018-10-07T05:24:00.855Z,532.00
2018-10-07T05:25:00.851Z,576.00
2018-10-07T05:26:00.850Z,620.00
2018-10-07T05:27:00.850Z,664.00
2018-10-07T05:28:00.404Z,716.00
2018-10-07T05:29:00.027Z,760.00
2018-10-07T05:30:00.850Z,812.00
2018-10-07T05:31:00.847Z,864.00
2018-10-07T05:32:00.854Z,916.00
2018-10-07T05:33:00.417Z,972.00
2018-10-07T05:33:59.890Z,1032.00
2018-10-07T05:34:59.859Z,1092.00
2018-10-07T05:36:00.350Z,1156.00
2018-10-07T05:37:00.352Z,1216.00
2018-10-07T05:37:59.915Z,1280.00
2018-10-07T05:39:00.351Z,1352.00
2018-10-07T05:40:00.359Z,1428.00
2018-10-07T05:41:00.362Z,1504.00
2018-10-07T05:42:00.412Z,1584.00
2018-10-07T05:42:59.911Z,1664.00
2018-10-07T05:43:59.604Z,1748.00
2018-10-07T05:45:00.353Z,1828.00
2018-10-07T05:45:59.942Z,1912.00
2018-10-07T05:47:00.354Z,1996.00
2018-10-07T05:48:00.358Z,2068.00
2018-10-07T05:48:59.907Z,2132.00
2018-10-07T05:50:00.368Z,2200.00
2018-10-07T05:51:00.352Z,2276.00
2018-10-07T05:51:59.383Z,2356.00
2018-10-07T05:52:59.854Z,2428.00
2018-10-07T05:53:59.417Z,2512.00
2018-10-07T05:54:59.854Z,2584.00
2018-10-07T05:55:59.418Z,2660.00
2018-10-07T05:56:59.876Z,2716.00
2018-10-07T05:57:59.861Z,2760.00
2018-10-07T05:58:59.196Z,2796.00
2018-10-07T05:59:59.155Z,2808.00
2018-10-07T06:00:59.415Z,2844.00
2018-10-07T06:01:59.925Z,2892.00
2018-10-07T06:02:59.862Z,2932.00
2018-10-07T06:03:59.412Z,2968.00
2018-10-07T06:04:59.855Z,3012.00
2018-10-07T06:05:59.854Z,2988.00
2018-10-07T06:06:59.475Z,2852.00
2018-10-07T06:07:59.857Z,2576.00
2018-10-07T06:08:59.858Z,2444.00
2018-10-07T06:09:59.857Z,2288.00
2018-10-07T06:10:59.359Z,2676.00
2018-10-07T06:11:58.923Z,2536.00
2018-10-07T06:12:59.367Z,2328.00
2018-10-07T06:13:58.785Z,2104.00
2018-10-07T06:14:59.460Z,2156.00
2018-10-07T06:15:59.358Z,1948.00
2018-10-07T06:16:58.908Z,1840.00
2018-10-07T06:17:58.916Z,1836.00
2018-10-07T06:18:59.369Z,1712.00
2018-10-07T06:19:58.605Z,1588.00
2018-10-07T06:20:59.362Z,1548.00
2018-10-07T06:21:59.359Z,1436.00
2018-10-07T06:22:58.913Z,1372.00
2018-10-07T06:23:59.360Z,1104.00
2018-10-07T06:24:59.362Z,944.00
2018-10-07T06:25:58.436Z,888.00
2018-10-07T06:26:58.909Z,964.00
2018-10-07T06:27:58.926Z,1004.00
2018-10-07T06:28:58.411Z,888.00
2018-10-07T06:29:58.394Z,996.00
2018-10-07T06:30:58.859Z,880.00
2018-10-07T06:31:58.414Z,872.00
2018-10-07T06:32:58.865Z,1044.00
2018-10-07T06:33:58.415Z,960.00
2018-10-07T06:34:58.864Z,1036.00
2018-10-07T06:35:58.881Z,936.00
2018-10-07T06:36:58.887Z,948.00
2018-10-07T06:37:58.111Z,924.00
2018-10-07T06:38:58.429Z,1120.00
2018-10-07T06:39:58.972Z,1092.00
2018-10-07T06:40:58.864Z,1156.00
2018-10-07T06:41:58.864Z,1064.00
2018-10-07T06:42:57.971Z,1036.00
2018-10-07T06:43:57.989Z,964.00
2018-10-07T06:44:58.418Z,804.00
2018-10-07T06:45:58.934Z,648.00
2018-10-07T06:46:58.367Z,620.00
2018-10-07T06:47:58.365Z,644.00
2018-10-07T06:48:57.943Z,756.00
2018-10-07T06:49:57.919Z,864.00
2018-10-07T06:50:58.369Z,912.00
2018-10-07T06:51:58.379Z,884.00
2018-10-07T06:52:58.365Z,868.00
2018-10-07T06:53:57.924Z,884.00
2018-10-07T06:54:58.366Z,1304.00
2018-10-07T06:55:57.922Z,1812.00
2018-10-07T06:56:58.366Z,2084.00
2018-10-07T06:57:58.366Z,2584.00
2018-10-07T06:58:57.537Z,3168.00
2018-10-07T06:59:58.369Z,3268.00
2018-10-07T07:00:57.933Z,3076.00
2018-10-07T07:01:58.375Z,2780.00
2018-10-07T07:02:58.366Z,2556.00
2018-10-07T07:03:58.366Z,2652.00
2018-10-07T07:04:57.868Z,3360.00
2018-10-07T07:05:57.388Z,4192.00
2018-10-07T07:06:57.868Z,5092.00
2018-10-07T07:07:57.423Z,6224.00
2018-10-07T07:08:57.882Z,7408.00
2018-10-07T07:09:57.422Z,8880.00
2018-10-07T07:10:57.872Z,12208.00
2018-10-07T07:11:57.875Z,12684.00
2018-10-07T07:12:57.935Z,11820.00
2018-10-07T07:13:57.181Z,11800.00
2018-10-07T07:14:57.873Z,12044.00
2018-10-07T07:15:57.876Z,11372.00
2018-10-07T07:16:57.873Z,10068.00
2018-10-07T07:17:57.015Z,7224.00
2018-10-07T07:18:57.470Z,6828.00
2018-10-07T07:19:57.974Z,7728.00
2018-10-07T07:20:57.876Z,6624.00
2018-10-07T07:21:57.871Z,5976.00
2018-10-07T07:22:57.869Z,6184.00
2018-10-07T07:23:56.928Z,6148.00
2018-10-07T07:24:56.935Z,6300.00
2018-10-07T07:25:56.924Z,5952.00
2018-10-07T07:26:57.374Z,5032.00
2018-10-07T07:27:57.375Z,4956.00
2018-10-07T07:28:56.724Z,5500.00
2018-10-07T07:29:56.935Z,5604.00
2018-10-07T07:30:56.978Z,4524.00
2018-10-07T07:31:57.388Z,4744.00
2018-10-07T07:32:57.376Z,4264.00
2018-10-07T07:33:57.375Z,3688.00
2018-10-07T07:34:57.055Z,3316.00
2018-10-07T07:35:56.528Z,2668.00
2018-10-07T07:36:57.438Z,2388.00
2018-10-07T07:37:57.376Z,2328.00
2018-10-07T07:38:57.388Z,2388.00
2018-10-07T07:39:56.942Z,2364.00
2018-10-07T07:40:57.375Z,2312.00
2018-10-07T07:41:56.878Z,2200.00
2018-10-07T07:42:56.875Z,2156.00
2018-10-07T07:43:56.321Z,2204.00
2018-10-07T07:44:56.445Z,2304.00
2018-10-07T07:45:56.876Z,2452.00
2018-10-07T07:46:56.877Z,2516.00
2018-10-07T07:47:56.877Z,2676.00
2018-10-07T07:48:56.976Z,2956.00
2018-10-07T07:49:56.449Z,3148.00
2018-10-07T07:50:56.876Z,3692.00
2018-10-07T07:51:56.086Z,5056.00
2018-10-07T07:52:56.879Z,4132.00
2018-10-07T07:53:56.876Z,3804.00
2018-10-07T07:54:57.378Z,4176.00
2018-10-07T07:55:56.430Z,3808.00
2018-10-07T07:56:56.887Z,3920.00
2018-10-07T07:57:56.881Z,3656.00
2018-10-07T07:58:55.894Z,3016.00
2018-10-07T07:59:56.380Z,2936.00
2018-10-07T08:00:55.937Z,2748.00
2018-10-07T08:01:56.378Z,3580.00
2018-10-07T08:02:56.381Z,5436.00
2018-10-07T08:03:56.379Z,6128.00
2018-10-07T08:04:55.933Z,7816.00
2018-10-07T08:05:55.935Z,9448.00
2018-10-07T08:06:55.932Z,11352.00
2018-10-07T08:07:56.380Z,9460.00
2018-10-07T08:08:55.662Z,9264.00
2018-10-07T08:09:56.425Z,9424.00
2018-10-07T08:10:56.380Z,9080.00
2018-10-07T08:11:56.434Z,11004.00
2018-10-07T08:12:56.403Z,10944.00
2018-10-07T08:13:55.489Z,9932.00
2018-10-07T08:14:56.390Z,10172.00
2018-10-07T08:15:55.935Z,10176.00
2018-10-07T08:16:55.936Z,9996.00
2018-10-07T08:17:55.924Z,10456.00
2018-10-07T08:18:55.895Z,9544.00
2018-10-07T08:19:55.885Z,9212.00
2018-10-07T08:20:55.446Z,11096.00
2018-10-07T08:21:55.888Z,10708.00
2018-10-07T08:22:55.883Z,10056.00
2018-10-07T08:23:55.970Z,11032.00
2018-10-07T08:24:55.883Z,10120.00
2018-10-07T08:25:55.947Z,9932.00
2018-10-07T08:26:55.884Z,11684.00
2018-10-07T08:27:55.885Z,12240.00
2018-10-07T08:28:55.089Z,13928.00
2018-10-07T08:29:55.883Z,13276.00
2018-10-07T08:30:55.435Z,11996.00
2018-10-07T08:31:55.908Z,11156.00
2018-10-07T08:32:55.439Z,10568.00
2018-10-07T08:33:55.888Z,11008.00
2018-10-07T08:34:55.886Z,11316.00
2018-10-07T08:35:55.386Z,11424.00
2018-10-07T08:36:55.000Z,11000.00
2018-10-07T08:37:54.942Z,9724.00
2018-10-07T08:38:55.386Z,11136.00
2018-10-07T08:39:55.387Z,11764.00
2018-10-07T08:40:55.384Z,10808.00
2018-10-07T08:41:54.936Z,11312.00
2018-10-07T08:42:54.971Z,11412.00
2018-10-07T08:43:54.650Z,11200.00
2018-10-07T08:44:54.748Z,11504.00
2018-10-07T08:45:55.387Z,10676.00
2018-10-07T08:46:54.945Z,10588.00
2018-10-07T08:47:54.950Z,12016.00
2018-10-07T08:48:55.388Z,11416.00
2018-10-07T08:49:55.014Z,11436.00
2018-10-07T08:50:55.388Z,13476.00
2018-10-07T08:51:55.389Z,13664.00
2018-10-07T08:52:55.395Z,13840.00
2018-10-07T08:53:54.893Z,13340.00
2018-10-07T08:54:54.446Z,12536.00
2018-10-07T08:55:54.448Z,13404.00
2018-10-07T08:56:54.914Z,12428.00
2018-10-07T08:57:54.897Z,11180.00
2018-10-07T08:58:54.247Z,10960.00
2018-10-07T08:59:54.888Z,9068.00
2018-10-07T09:00:54.249Z,7724.00
2018-10-07T09:01:54.938Z,8244.00
2018-10-07T09:02:54.891Z,8776.00
2018-10-07T09:03:54.110Z,10536.00
2018-10-07T09:04:54.893Z,10984.00
2018-10-07T09:05:54.469Z,10344.00
2018-10-07T09:06:54.893Z,10692.00
2018-10-07T09:07:54.893Z,12108.00
2018-10-07T09:08:54.936Z,12192.00
2018-10-07T09:09:54.448Z,12016.00
2018-10-07T09:10:54.896Z,12840.00
2018-10-07T09:11:53.948Z,14440.00
2018-10-07T09:12:54.393Z,14052.00
2018-10-07T09:13:53.842Z,14292.00
2018-10-07T09:14:54.417Z,13536.00
2018-10-07T09:15:53.954Z,15272.00
2018-10-07T09:16:54.395Z,16416.00
2018-10-07T09:17:54.394Z,14872.00
2018-10-07T09:18:54.393Z,14052.00
2018-10-07T09:19:54.395Z,13596.00
2018-10-07T09:20:54.001Z,13120.00
2018-10-07T09:21:54.397Z,13448.00
2018-10-07T09:22:54.395Z,11904.00
2018-10-07T09:23:54.399Z,15532.00
2018-10-07T09:24:54.397Z,15428.00
2018-10-07T09:25:53.967Z,16512.00
2018-10-07T09:26:54.456Z,16960.00
2018-10-07T09:27:54.397Z,16640.00
2018-10-07T09:28:53.500Z,16124.00
2018-10-07T09:29:54.408Z,15652.00
2018-10-07T09:30:53.905Z,17184.00
2018-10-07T09:31:53.903Z,16316.00
2018-10-07T09:32:53.986Z,15948.00
2018-10-07T09:33:53.457Z,15524.00
2018-10-07T09:34:53.920Z,13752.00
2018-10-07T09:35:53.250Z,11608.00
2018-10-07T09:36:53.953Z,10256.00
2018-10-07T09:37:53.912Z,8016.00
2018-10-07T09:38:53.463Z,6516.00
2018-10-07T09:39:53.987Z,5752.00
2018-10-07T09:40:53.458Z,5828.00
2018-10-07T09:41:53.902Z,6948.00
2018-10-07T09:42:53.900Z,7288.00
2018-10-07T09:43:53.039Z,8828.00
2018-10-07T09:44:53.454Z,8996.00
2018-10-07T09:45:53.938Z,7360.00
2018-10-07T09:46:53.900Z,7060.00
2018-10-07T09:47:53.903Z,7264.00
2018-10-07T09:48:52.976Z,7188.00
2018-10-07T09:49:52.955Z,7908.00
2018-10-07T09:50:52.960Z,8836.00
2018-10-07T09:51:53.400Z,9028.00
2018-10-07T09:52:52.962Z,8328.00
2018-10-07T09:53:52.765Z,7840.00
2018-10-07T09:54:53.402Z,8052.00
2018-10-07T09:55:52.971Z,7524.00
2018-10-07T09:56:53.401Z,7504.00
2018-10-07T09:57:52.714Z,7644.00
2018-10-07T09:58:52.672Z,7100.00
2018-10-07T09:59:53.403Z,6948.00
2018-10-07T10:00:53.409Z,7148.00
2018-10-07T10:01:53.404Z,7484.00
2018-10-07T10:02:52.983Z,7908.00
2018-10-07T10:03:53.402Z,8296.00
2018-10-07T10:04:53.404Z,7552.00
2018-10-07T10:05:53.413Z,6696.00
2018-10-07T10:06:52.958Z,6372.00
2018-10-07T10:07:52.461Z,5584.00
2018-10-07T10:08:52.909Z,5116.00
2018-10-07T10:09:52.324Z,5044.00
2018-10-07T10:10:52.358Z,4904.00
2018-10-07T10:11:52.909Z,4740.00
2018-10-07T10:12:52.905Z,4736.00
2018-10-07T10:13:52.251Z,4832.00
2018-10-07T10:14:52.909Z,4924.00
2018-10-07T10:15:52.910Z,5068.00
2018-10-07T10:16:52.458Z,5500.00
2018-10-07T10:17:52.907Z,6000.00
2018-10-07T10:18:52.914Z,6616.00
2018-10-07T10:19:52.466Z,5844.00
2018-10-07T10:20:52.016Z,5080.00
2018-10-07T10:21:52.909Z,4956.00
2018-10-07T10:22:52.908Z,5056.00
2018-10-07T10:23:52.908Z,4532.00
2018-10-07T10:24:51.973Z,4344.00
2018-10-07T10:25:52.410Z,4112.00
2018-10-07T10:26:51.852Z,4112.00
2018-10-07T10:27:51.820Z,4328.00
2018-10-07T10:28:51.795Z,4908.00
2018-10-07T10:29:52.030Z,5572.00
2018-10-07T10:30:51.967Z,5752.00
2018-10-07T10:31:52.414Z,6108.00
2018-10-07T10:32:51.740Z,5808.00
2018-10-07T10:33:52.410Z,5756.00
2018-10-07T10:34:52.409Z,8212.00
2018-10-07T10:35:51.967Z,9956.00
2018-10-07T10:36:52.424Z,9684.00
2018-10-07T10:37:52.411Z,8872.00
2018-10-07T10:38:52.412Z,7672.00
2018-10-07T10:39:52.432Z,6248.00
2018-10-07T10:40:51.963Z,6376.00
2018-10-07T10:41:52.418Z,6628.00
2018-10-07T10:42:51.473Z,7432.00
2018-10-07T10:43:51.370Z,8144.00
2018-10-07T10:44:51.342Z,8216.00
2018-10-07T10:45:51.317Z,8024.00
2018-10-07T10:46:51.910Z,7680.00
2018-10-07T10:47:51.493Z,7812.00
2018-10-07T10:48:51.912Z,8120.00
2018-10-07T10:49:51.912Z,7952.00
2018-10-07T10:50:51.912Z,7784.00
2018-10-07T10:51:51.913Z,7400.00
2018-10-07T10:52:51.481Z,7324.00
2018-10-07T10:53:51.918Z,7004.00
2018-10-07T10:54:51.931Z,6940.00
2018-10-07T10:55:51.913Z,6668.00
2018-10-07T10:56:51.914Z,6280.00
2018-10-07T10:57:51.470Z,6208.00
2018-10-07T10:58:50.970Z,6204.00
2018-10-07T10:59:51.916Z,6056.00
2018-10-07T11:00:51.419Z,6124.00
2018-10-07T11:01:50.980Z,6352.00
2018-10-07T11:02:50.849Z,6636.00
2018-10-07T11:03:51.418Z,6660.00
2018-10-07T11:04:51.423Z,6232.00
2018-10-07T11:05:51.423Z,6228.00
2018-10-07T11:06:50.984Z,6716.00
2018-10-07T11:07:51.417Z,7148.00
2018-10-07T11:08:51.416Z,7508.00
2018-10-07T11:09:51.417Z,7740.00
2018-10-07T11:10:51.418Z,8148.00
2018-10-07T11:11:50.972Z,8540.00
2018-10-07T11:12:51.419Z,8956.00
2018-10-07T11:13:50.625Z,8676.00
2018-10-07T11:14:51.420Z,8280.00
2018-10-07T11:15:50.541Z,8412.00
2018-10-07T11:16:50.986Z,8964.00
2018-10-07T11:17:51.422Z,9220.00
2018-10-07T11:18:50.398Z,9156.00
2018-10-07T11:19:50.919Z,9324.00
2018-10-07T11:20:50.917Z,9604.00
2018-10-07T11:21:50.473Z,8936.00
2018-10-07T11:22:50.921Z,8908.00
2018-10-07T11:23:50.930Z,8792.00
2018-10-07T11:24:50.925Z,9400.00
2018-10-07T11:25:50.489Z,9700.00
2018-10-07T11:26:50.921Z,9944.00
2018-10-07T11:27:50.929Z,10248.00
2018-10-07T11:28:50.122Z,10804.00
2018-10-07T11:29:50.920Z,11268.00
2018-10-07T11:30:50.476Z,10724.00
2018-10-07T11:31:50.922Z,10680.00
2018-10-07T11:32:50.976Z,10912.00
2018-10-07T11:33:50.921Z,11188.00
2018-10-07T11:34:51.051Z,11428.00
2018-10-07T11:35:49.974Z,11204.00
2018-10-07T11:36:49.901Z,10968.00
2018-10-07T11:37:50.421Z,10912.00
2018-10-07T11:38:50.424Z,10252.00
2018-10-07T11:39:50.426Z,9748.00
2018-10-07T11:40:50.027Z,10052.00
2018-10-07T11:41:50.431Z,10372.00
2018-10-07T11:42:50.423Z,9260.00
2018-10-07T11:43:49.714Z,8948.00
2018-10-07T11:44:50.425Z,9588.00
2018-10-07T11:45:49.973Z,10736.00
2018-10-07T11:46:50.454Z,10260.00
2018-10-07T11:47:49.978Z,10092.00
2018-10-07T11:48:50.429Z,10208.00
2018-10-07T11:49:50.428Z,9676.00
2018-10-07T11:50:50.429Z,9264.00
2018-10-07T11:51:49.978Z,9484.00
2018-10-07T11:52:50.480Z,9924.00
2018-10-07T11:53:49.447Z,10076.00
2018-10-07T11:54:49.451Z,10304.00
2018-10-07T11:55:49.929Z,9896.00
2018-10-07T11:56:49.926Z,9928.00
2018-10-07T11:57:49.519Z,9604.00
2018-10-07T11:58:49.312Z,9380.00
2018-10-07T11:59:49.931Z,9268.00
2018-10-07T12:00:49.936Z,9340.00
2018-10-07T12:01:49.930Z,10052.00
2018-10-07T12:02:49.572Z,10468.00
2018-10-07T12:03:49.931Z,10868.00
2018-10-07T12:04:49.931Z,11156.00
2018-10-07T12:05:49.930Z,11220.00
2018-10-07T12:06:49.931Z,11396.00
2018-10-07T12:07:49.489Z,11456.00
2018-10-07T12:08:49.955Z,11528.00
2018-10-07T12:09:49.037Z,11132.00
2018-10-07T12:10:49.498Z,10628.00
2018-10-07T12:11:48.947Z,10072.00
2018-10-07T12:12:49.000Z,9368.00
2018-10-07T12:13:48.895Z,8520.00
2018-10-07T12:14:49.429Z,9064.00
2018-10-07T12:15:48.840Z,10372.00
2018-10-07T12:16:48.809Z,10680.00
2018-10-07T12:17:48.982Z,11380.00
2018-10-07T12:18:49.429Z,11316.00
2018-10-07T12:19:49.430Z,11144.00
2018-10-07T12:20:48.996Z,11580.00
2018-10-07T12:21:49.434Z,11376.00
2018-10-07T12:22:49.430Z,11132.00
2018-10-07T12:23:49.457Z,10984.00
2018-10-07T12:24:49.432Z,10496.00
2018-10-07T12:25:48.988Z,10128.00
2018-10-07T12:26:49.433Z,9700.00
2018-10-07T12:27:48.512Z,9556.00
2018-10-07T12:28:48.570Z,9212.00
2018-10-07T12:29:49.432Z,9028.00
2018-10-07T12:30:48.936Z,8816.00